Time;durP1;ratioP1;P1;durP2;ratioP2;P2;SDS_P1;SDS_P2;PMS_P1;PMS_P2;Temp;Humidity;BMP_temperature;BMP_pressure;BME280_temperature;BME280_humidity;BME280_pressure;Samples;Min_cycle;Max_cycle;Signal;HPM_P1;HPM_P2
2023/02/22 00:00:18;;;;;;;6.10;3.00;;;;;;;;;;5111928;28;20044;-42
2023/02/22 00:02:45;;;;;;;6.60;2.80;;;;;;;;;;5111925;28;20031;-39
2023/02/22 00:05:14;;;;;;;4.88;2.60;;;;;;;;;;5112022;28;20023;-42
2023/02/22 00:07:40;;;;;;;7.88;2.58;;;;;;;;;;5111069;28;20015;-40
2023/02/22 00:10:12;;;;;;;3.85;2.70;;;;;;;;;;5111838;28;20028;-41
2023/02/22 00:12:38;;;;;;;4.43;2.97;;;;;;;;;;5111698;28;20517;-39
2023/02/22 00:15:04;;;;;;;4.57;2.60;;;;;;;;;;5111752;28;20020;-42
2023/02/22 00:17:30;;;;;;;7.43;2.80;;;;;;;;;;5111627;28;20099;-40
2023/02/22 00:19:57;;;;;;;6.65;2.95;;;;;;;;;;5111903;28;20020;-39
2023/02/22 00:22:23;;;;;;;4.55;3.03;;;;;;;;;;5111939;28;20032;-40
2023/02/22 00:24:49;;;;;;;5.18;2.83;;;;;;;;;;5110410;28;20034;-41
2023/02/22 00:27:15;;;;;;;3.75;2.30;;;;;;;;;;5110118;28;20024;-41
2023/02/22 00:29:45;;;;;;;5.07;2.88;;;;;;;;;;5111538;28;20034;-42
2023/02/22 00:32:11;;;;;;;4.50;2.67;;;;;;;;;;5110171;28;20122;-35
2023/02/22 00:34:37;;;;;;;5.55;2.90;;;;;;;;;;5111786;28;20020;-41
2023/02/22 00:37:03;;;;;;;6.03;3.00;;;;;;;;;;5111694;28;20057;-41
2023/02/22 00:39:30;;;;;;;4.50;2.78;;;;;;;;;;5111569;28;20020;-42
2023/02/22 00:41:56;;;;;;;4.32;2.58;;;;;;;;;;5110109;28;20043;-40
2023/02/22 00:44:23;;;;;;;4.80;2.78;;;;;;;;;;5111491;28;20032;-43
2023/02/22 00:46:49;;;;;;;7.57;3.00;;;;;;;;;;5111265;28;20028;-42
2023/02/22 00:49:16;;;;;;;4.30;2.90;;;;;;;;;;5111358;28;20401;-42
2023/02/22 00:51:42;;;;;;;6.00;2.83;;;;;;;;;;5111328;28;20042;-35
2023/02/22 00:54:09;;;;;;;5.57;2.75;;;;;;;;;;5111610;28;20016;-36
2023/02/22 00:56:36;;;;;;;4.07;2.58;;;;;;;;;;5111743;28;20027;-34
2023/02/22 00:59:02;;;;;;;6.63;2.90;;;;;;;;;;5111198;28;20147;-33
2023/02/22 01:01:29;;;;;;;4.18;2.70;;;;;;;;;;5111366;28;20027;-34
2023/02/22 01:03:55;;;;;;;4.72;2.65;;;;;;;;;;5111552;28;20020;-32
2023/02/22 01:06:21;;;;;;;7.05;2.95;;;;;;;;;;5111159;28;20089;-37
2023/02/22 01:08:48;;;;;;;8.00;2.80;;;;;;;;;;5111369;28;20023;-32
2023/02/22 01:11:17;;;;;;;4.75;2.92;;;;;;;;;;5111162;28;20028;-35
2023/02/22 01:13:46;;;;;;;3.95;2.45;;;;;;;;;;5111407;28;20019;-35
2023/02/22 01:16:12;;;;;;;4.22;2.55;;;;;;;;;;5111203;28;20448;-34
2023/02/22 01:18:38;;;;;;;5.95;2.90;;;;;;;;;;5113378;28;20066;-33
2023/02/22 01:21:04;;;;;;;4.88;2.70;;;;;;;;;;5115063;28;20039;-33
2023/02/22 01:23:30;;;;;;;5.03;2.95;;;;;;;;;;5115039;28;20117;-38
2023/02/22 01:25:57;;;;;;;5.07;2.65;;;;;;;;;;5114615;28;20038;-38
2023/02/22 01:28:23;;;;;;;6.95;3.13;;;;;;;;;;5113746;28;20023;-35
2023/02/22 01:30:49;;;;;;;4.25;2.42;;;;;;;;;;5114795;28;20042;-39
2023/02/22 01:33:15;;;;;;;6.05;2.80;;;;;;;;;;5114669;28;20019;-32
2023/02/22 01:35:42;;;;;;;4.53;2.45;;;;;;;;;;5114623;28;20020;-34
2023/02/22 01:38:09;;;;;;;5.70;2.90;;;;;;;;;;5114581;28;20073;-35
2023/02/22 01:40:38;;;;;;;4.55;2.60;;;;;;;;;;5114287;28;20027;-39
2023/02/22 01:43:14;;;;;;;4.97;2.63;;;;;;;;;;5114732;28;20427;-35
2023/02/22 01:45:45;;;;;;;5.22;2.45;;;;;;;;;;5114606;28;20023;-41
2023/02/22 01:48:14;;;;;;;4.40;2.58;;;;;;;;;;5114285;28;20026;-37
2023/02/22 01:50:42;;;;;;;4.70;2.70;;;;;;;;;;5114369;28;20051;-31
2023/02/22 01:53:10;;;;;;;6.18;2.75;;;;;;;;;;5114241;28;20063;-37
2023/02/22 01:55:36;;;;;;;6.03;2.80;;;;;;;;;;5114001;28;20020;-35
2023/02/22 01:58:03;;;;;;;4.80;2.50;;;;;;;;;;5114011;28;20027;-35
2023/02/22 02:00:29;;;;;;;5.15;2.75;;;;;;;;;;5114263;28;20081;-33
2023/02/22 02:02:58;;;;;;;5.03;2.60;;;;;;;;;;5112845;28;20119;-33
2023/02/22 02:05:30;;;;;;;5.80;3.10;;;;;;;;;;5114078;28;20469;-38
2023/02/22 02:07:56;;;;;;;4.10;2.45;;;;;;;;;;5113926;28;20038;-35
2023/02/22 02:10:23;;;;;;;6.18;2.80;;;;;;;;;;5113866;28;20038;-35
2023/02/22 02:12:50;;;;;;;7.85;2.88;;;;;;;;;;5113934;28;20111;-33
2023/02/22 02:15:18;;;;;;;4.75;2.80;;;;;;;;;;5114193;28;20020;-33
2023/02/22 02:17:45;;;;;;;6.25;2.75;;;;;;;;;;5113888;28;20015;-36
2023/02/22 02:20:21;;;;;;;7.00;3.20;;;;;;;;;;5113972;28;20381;-38
2023/02/22 02:23:07;;;;;;;5.57;2.75;;;;;;;;;;5112829;28;20056;-32
2023/02/22 02:25:33;;;;;;;4.63;2.50;;;;;;;;;;5113769;28;20024;-36
2023/02/22 02:28:17;;;;;;;5.30;2.80;;;;;;;;;;5113588;28;20031;-37
2023/02/22 02:31:09;;;;;;;5.65;2.92;;;;;;;;;;5112988;28;20031;-33
2023/02/22 02:33:42;;;;;;;6.55;2.65;;;;;;;;;;5097091;28;20035;-35
2023/02/22 02:36:15;;;;;;;5.72;2.35;;;;;;;;;;5113421;27;20035;-32
2023/02/22 02:38:40;;;;;;;4.53;2.70;;;;;;;;;;5113549;28;20028;-37
2023/02/22 02:41:27;;;;;;;5.60;2.92;;;;;;;;;;5113362;28;20107;-32
2023/02/22 02:44:02;;;;;;;6.10;2.88;;;;;;;;;;5113220;28;20043;-36
2023/02/22 02:46:58;;;;;;;6.28;2.90;;;;;;;;;;5113410;28;20020;-36
2023/02/22 02:49:30;;;;;;;5.40;2.53;;;;;;;;;;5104199;28;20427;-35
2023/02/22 02:51:57;;;;;;;4.47;2.70;;;;;;;;;;5113105;28;20092;-37
2023/02/22 02:54:23;;;;;;;5.60;2.95;;;;;;;;;;5112788;28;20028;-36
2023/02/22 02:56:50;;;;;;;5.50;2.60;;;;;;;;;;5113010;28;20062;-34
2023/02/22 02:59:29;;;;;;;5.40;2.75;;;;;;;;;;5113013;28;20028;-37
2023/02/22 03:02:12;;;;;;;5.57;2.67;;;;;;;;;;5113026;28;20044;-32
2023/02/22 03:04:47;;;;;;;4.93;2.45;;;;;;;;;;5113270;28;20031;-33
2023/02/22 03:07:23;;;;;;;4.65;2.58;;;;;;;;;;5112747;28;20019;-33
2023/02/22 03:10:01;;;;;;;4.22;2.55;;;;;;;;;;5112920;27;20028;-33
2023/02/22 03:12:33;;;;;;;5.85;2.60;;;;;;;;;;5112569;28;20481;-38
2023/02/22 03:15:00;;;;;;;4.85;2.50;;;;;;;;;;5113007;27;20024;-34
2023/02/22 03:17:35;;;;;;;5.30;2.65;;;;;;;;;;5111216;28;20062;-36
2023/02/22 03:20:05;;;;;;;5.13;2.85;;;;;;;;;;5112730;28;20026;-35
2023/02/22 03:22:35;;;;;;;4.50;2.70;;;;;;;;;;5111285;28;20023;-37
2023/02/22 03:25:05;;;;;;;5.68;2.83;;;;;;;;;;5112547;28;20027;-32
2023/02/22 03:27:34;;;;;;;3.65;2.40;;;;;;;;;;5111191;28;20024;-36
2023/02/22 03:30:03;;;;;;;6.18;3.08;;;;;;;;;;5112577;28;20028;-35
2023/02/22 03:32:31;;;;;;;5.05;2.63;;;;;;;;;;5112513;28;20028;-33
2023/02/22 03:34:59;;;;;;;4.30;2.45;;;;;;;;;;5112468;28;20023;-34
2023/02/22 03:37:28;;;;;;;5.22;2.50;;;;;;;;;;5112141;28;20058;-33
2023/02/22 03:39:55;;;;;;;3.70;2.70;;;;;;;;;;5112385;28;20023;-36
2023/02/22 03:42:28;;;;;;;3.55;2.40;;;;;;;;;;5111327;28;20049;-36
2023/02/22 03:44:56;;;;;;;4.90;2.65;;;;;;;;;;5112511;28;20024;-32
2023/02/22 03:47:27;;;;;;;3.70;2.20;;;;;;;;;;5112372;28;20435;-34
2023/02/22 03:49:55;;;;;;;5.80;2.83;;;;;;;;;;5110827;28;20027;-34
2023/02/22 03:52:22;;;;;;;5.47;2.80;;;;;;;;;;5111967;28;20031;-32
2023/02/22 03:54:52;;;;;;;5.05;2.80;;;;;;;;;;5112223;27;20036;-36
2023/02/22 03:57:29;;;;;;;6.15;2.78;;;;;;;;;;5112390;28;20022;-38
2023/02/22 03:59:55;;;;;;;5.03;2.50;;;;;;;;;;5111876;28;20432;-35
2023/02/22 04:02:22;;;;;;;5.78;2.92;;;;;;;;;;5110530;28;20481;-33
2023/02/22 04:04:48;;;;;;;5.25;2.80;;;;;;;;;;5112149;28;20028;-34
2023/02/22 04:07:15;;;;;;;4.50;2.88;;;;;;;;;;5111797;28;20023;-36
2023/02/22 04:09:41;;;;;;;7.07;2.92;;;;;;;;;;5112305;28;20031;-37
2023/02/22 04:12:07;;;;;;;5.43;2.90;;;;;;;;;;5111715;28;20038;-33
2023/02/22 04:14:33;;;;;;;3.92;2.35;;;;;;;;;;5111741;28;20031;-39
2023/02/22 04:16:59;;;;;;;3.78;2.42;;;;;;;;;;5111608;28;20024;-35
2023/02/22 04:19:26;;;;;;;4.57;3.13;;;;;;;;;;5111935;28;20030;-34
2023/02/22 04:21:52;;;;;;;5.57;2.92;;;;;;;;;;5111663;28;20053;-33
2023/02/22 04:24:18;;;;;;;4.57;2.70;;;;;;;;;;5111730;28;20039;-36
2023/02/22 04:26:44;;;;;;;4.38;2.42;;;;;;;;;;5111477;28;20040;-34
2023/02/22 04:29:10;;;;;;;4.05;2.50;;;;;;;;;;5111500;28;20031;-38
2023/02/22 04:31:36;;;;;;;7.43;2.80;;;;;;;;;;5110189;28;20035;-32
2023/02/22 04:34:02;;;;;;;4.32;2.20;;;;;;;;;;5111672;28;20027;-33
2023/02/22 04:36:30;;;;;;;6.78;2.70;;;;;;;;;;5111395;28;20512;-35
2023/02/22 04:38:57;;;;;;;4.63;2.55;;;;;;;;;;5111587;28;20026;-32
2023/02/22 04:41:23;;;;;;;3.95;2.28;;;;;;;;;;5111524;28;20542;-32
2023/02/22 04:43:49;;;;;;;4.65;2.70;;;;;;;;;;5111396;28;20385;-34
2023/02/22 04:46:15;;;;;;;4.60;2.72;;;;;;;;;;5111420;28;20027;-32
2023/02/22 04:48:41;;;;;;;5.03;2.80;;;;;;;;;;5111666;28;20027;-34
2023/02/22 04:51:07;;;;;;;5.13;2.45;;;;;;;;;;5111464;28;20019;-32
2023/02/22 04:53:34;;;;;;;5.65;2.70;;;;;;;;;;5113148;28;20051;-33
2023/02/22 04:56:00;;;;;;;3.75;2.30;;;;;;;;;;5114012;28;20450;-39
2023/02/22 04:58:26;;;;;;;4.95;2.50;;;;;;;;;;5115398;28;20231;-32
2023/02/22 05:00:52;;;;;;;4.60;2.55;;;;;;;;;;5115376;28;20489;-34
2023/02/22 05:03:19;;;;;;;3.25;2.35;;;;;;;;;;5115389;28;20023;-36
2023/02/22 05:05:45;;;;;;;3.78;2.40;;;;;;;;;;5113978;28;20164;-36
2023/02/22 05:08:11;;;;;;;3.88;2.38;;;;;;;;;;5115232;28;20496;-33
2023/02/22 05:10:37;;;;;;;5.82;2.80;;;;;;;;;;5113897;28;20076;-34
2023/02/22 05:13:04;;;;;;;4.10;2.40;;;;;;;;;;5114989;27;20035;-38
2023/02/22 05:15:31;;;;;;;4.55;2.50;;;;;;;;;;5113832;28;20507;-34
2023/02/22 05:17:57;;;;;;;4.40;2.40;;;;;;;;;;5115048;28;20395;-36
2023/02/22 05:20:31;;;;;;;3.63;2.30;;;;;;;;;;5115112;28;20034;-39
2023/02/22 05:22:58;;;;;;;4.07;2.10;;;;;;;;;;5115086;28;20030;-33
2023/02/22 05:25:24;;;;;;;4.80;2.53;;;;;;;;;;5113527;28;20034;-34
2023/02/22 05:27:54;;;;;;;3.78;2.30;;;;;;;;;;5115177;28;20413;-32
2023/02/22 05:30:25;;;;;;;4.65;2.83;;;;;;;;;;5114776;28;20059;-37
2023/02/22 05:32:52;;;;;;;5.50;2.90;;;;;;;;;;5114858;28;20019;-33
2023/02/22 05:35:18;;;;;;;4.53;2.28;;;;;;;;;;5114722;28;20026;-40
2023/02/22 05:37:44;;;;;;;5.20;2.83;;;;;;;;;;5114603;28;20023;-33
2023/02/22 05:40:11;;;;;;;5.18;2.83;;;;;;;;;;5114545;28;20023;-34
2023/02/22 05:42:37;;;;;;;4.72;2.92;;;;;;;;;;5114461;28;20026;-34
2023/02/22 05:45:03;;;;;;;4.65;2.60;;;;;;;;;;5114580;28;20118;-37
2023/02/22 05:47:29;;;;;;;12.75;4.00;;;;;;;;;;5114543;28;20373;-33
2023/02/22 05:49:55;;;;;;;7.93;3.60;;;;;;;;;;5114594;28;20031;-39
2023/02/22 05:52:21;;;;;;;7.22;3.60;;;;;;;;;;5114256;28;20080;-33
2023/02/22 05:54:47;;;;;;;6.85;3.63;;;;;;;;;;5114275;28;20023;-34
2023/02/22 05:57:13;;;;;;;8.25;3.80;;;;;;;;;;5114002;28;20024;-42
2023/02/22 05:59:39;;;;;;;8.23;3.40;;;;;;;;;;5114330;28;20027;-39
2023/02/22 06:02:07;;;;;;;8.60;3.72;;;;;;;;;;5114592;28;20071;-42
2023/02/22 06:04:33;;;;;;;5.47;3.13;;;;;;;;;;5113782;28;20500;-39
2023/02/22 06:06:59;;;;;;;6.63;3.65;;;;;;;;;;5113801;28;20059;-40
2023/02/22 06:09:25;;;;;;;12.68;5.60;;;;;;;;;;5114225;28;20031;-40
2023/02/22 06:11:51;;;;;;;11.05;4.40;;;;;;;;;;5114064;28;20073;-42
2023/02/22 06:14:17;;;;;;;7.45;3.17;;;;;;;;;;5114223;28;20449;-42
2023/02/22 06:16:43;;;;;;;5.95;3.05;;;;;;;;;;5113879;28;20019;-41
2023/02/22 06:19:09;;;;;;;6.43;3.35;;;;;;;;;;5114066;28;20038;-41
2023/02/22 06:21:35;;;;;;;8.68;3.60;;;;;;;;;;5113768;27;20024;-39
2023/02/22 06:24:03;;;;;;;10.95;3.30;;;;;;;;;;5113929;28;20077;-40
2023/02/22 06:26:29;;;;;;;7.13;3.80;;;;;;;;;;5113678;28;20020;-31
2023/02/22 06:28:55;;;;;;;6.82;3.63;;;;;;;;;;5113835;28;20031;-34
2023/02/22 06:31:21;;;;;;;4.93;3.20;;;;;;;;;;5113757;28;20367;-32
2023/02/22 06:33:47;;;;;;;9.52;3.47;;;;;;;;;;5113690;28;20031;-35
2023/02/22 06:36:13;;;;;;;4.72;3.00;;;;;;;;;;5113364;28;20071;-34
2023/02/22 06:38:39;;;;;;;8.38;3.20;;;;;;;;;;5112260;28;20027;-34
2023/02/22 06:41:05;;;;;;;7.47;3.67;;;;;;;;;;5113584;28;20020;-34
2023/02/22 06:43:31;;;;;;;6.53;3.15;;;;;;;;;;5113506;28;20040;-33
2023/02/22 06:45:57;;;;;;;6.07;3.90;;;;;;;;;;5113522;28;20024;-35
2023/02/22 06:48:23;;;;;;;7.95;3.33;;;;;;;;;;5112111;28;20028;-34
2023/02/22 06:50:49;;;;;;;6.28;3.50;;;;;;;;;;5111889;27;20046;-33
2023/02/22 06:53:15;;;;;;;6.70;3.35;;;;;;;;;;5113221;28;20034;-37
2023/02/22 06:55:41;;;;;;;6.03;3.63;;;;;;;;;;5113107;28;20015;-34
2023/02/22 06:58:07;;;;;;;5.57;3.40;;;;;;;;;;5113176;28;20028;-35
2023/02/22 07:00:33;;;;;;;8.57;3.50;;;;;;;;;;5111653;28;20027;-33
2023/02/22 07:02:59;;;;;;;6.18;3.30;;;;;;;;;;5113159;28;20031;-39
2023/02/22 07:05:26;;;;;;;6.43;2.95;;;;;;;;;;5113021;28;20024;-34
2023/02/22 07:07:53;;;;;;;7.85;3.45;;;;;;;;;;5113080;28;20038;-35
2023/02/22 07:10:24;;;;;;;5.20;3.15;;;;;;;;;;5113087;28;20023;-38
2023/02/22 07:12:51;;;;;;;7.43;3.15;;;;;;;;;;5112952;28;20114;-33
2023/02/22 07:15:17;;;;;;;7.47;3.17;;;;;;;;;;5112951;27;20022;-33
2023/02/22 07:17:44;;;;;;;7.18;3.13;;;;;;;;;;5112516;27;20073;-35
2023/02/22 07:20:10;;;;;;;5.53;3.30;;;;;;;;;;5113124;28;20364;-35
2023/02/22 07:22:37;;;;;;;6.57;3.13;;;;;;;;;;5112714;28;20020;-33
2023/02/22 07:25:04;;;;;;;5.53;3.35;;;;;;;;;;5112602;28;20397;-33
2023/02/22 07:27:30;;;;;;;4.88;2.92;;;;;;;;;;5112739;28;20043;-37
2023/02/22 07:29:56;;;;;;;6.88;3.05;;;;;;;;;;5112597;28;20026;-36
2023/02/22 07:32:22;;;;;;;5.82;3.28;;;;;;;;;;5112633;28;20476;-34
2023/02/22 07:34:48;;;;;;;5.10;2.80;;;;;;;;;;5112583;28;20137;-32
2023/02/22 07:37:14;;;;;;;10.50;4.15;;;;;;;;;;5112216;28;20083;-31
2023/02/22 07:39:42;;;;;;;9.25;4.93;;;;;;;;;;5112416;27;20035;-31
2023/02/22 07:42:08;;;;;;;7.68;4.30;;;;;;;;;;5112677;28;20023;-31
2023/02/22 07:44:34;;;;;;;8.55;4.85;;;;;;;;;;5110973;28;20028;-33
2023/02/22 07:47:01;;;;;;;8.75;4.43;;;;;;;;;;5112120;28;20435;-31
2023/02/22 07:49:27;;;;;;;7.55;4.22;;;;;;;;;;5112185;28;20023;-33
2023/02/22 07:51:53;;;;;;;6.38;3.72;;;;;;;;;;5112435;28;20036;-35
2023/02/22 07:54:20;;;;;;;6.32;4.10;;;;;;;;;;5111986;28;20142;-31
2023/02/22 07:56:46;;;;;;;8.90;4.30;;;;;;;;;;5112000;28;20522;-36
2023/02/22 07:59:13;;;;;;;6.45;4.03;;;;;;;;;;5112002;28;20027;-31
2023/02/22 08:01:39;;;;;;;8.27;4.18;;;;;;;;;;5112075;28;20391;-31
2023/02/22 08:04:05;;;;;;;6.43;4.03;;;;;;;;;;5112113;28;20030;-31
2023/02/22 08:06:31;;;;;;;5.82;3.47;;;;;;;;;;5111836;28;20019;-31
2023/02/22 08:08:57;;;;;;;9.60;4.38;;;;;;;;;;5111976;28;20027;-30
2023/02/22 08:11:24;;;;;;;7.93;3.85;;;;;;;;;;5111889;28;20032;-33
2023/02/22 08:13:50;;;;;;;7.75;3.70;;;;;;;;;;5111937;28;20094;-31
2023/02/22 08:16:16;;;;;;;6.90;4.00;;;;;;;;;;5111677;28;20035;-34
2023/02/22 08:18:42;;;;;;;6.40;4.03;;;;;;;;;;5112296;28;20068;-34
2023/02/22 08:21:08;;;;;;;6.28;3.40;;;;;;;;;;5111829;28;20482;-36
2023/02/22 08:23:34;;;;;;;7.10;4.00;;;;;;;;;;5111856;28;20031;-37
2023/02/22 08:26:06;;;;;;;7.05;3.17;;;;;;;;;;5111558;28;20024;-32
2023/02/22 08:28:33;;;;;;;5.82;3.45;;;;;;;;;;5111230;28;20493;-34
2023/02/22 08:30:59;;;;;;;4.93;3.10;;;;;;;;;;5111653;28;20023;-34
2023/02/22 08:33:25;;;;;;;5.75;3.45;;;;;;;;;;5111520;28;20393;-31
2023/02/22 08:35:51;;;;;;;6.53;3.47;;;;;;;;;;5111418;28;20031;-37
2023/02/22 08:38:22;;;;;;;5.55;3.55;;;;;;;;;;5111571;28;20026;-35
2023/02/22 08:40:49;;;;;;;8.60;3.67;;;;;;;;;;5111766;28;20026;-33
2023/02/22 08:43:15;;;;;;;4.93;3.47;;;;;;;;;;5111661;28;20027;-34
2023/02/22 08:45:41;;;;;;;6.28;3.40;;;;;;;;;;5111491;28;20080;-35
2023/02/22 08:48:07;;;;;;;6.03;3.20;;;;;;;;;;5111455;28;20034;-34
2023/02/22 08:50:34;;;;;;;5.35;3.13;;;;;;;;;;5111549;28;20031;-34
2023/02/22 08:53:01;;;;;;;7.28;3.17;;;;;;;;;;5111483;28;20023;-33
2023/02/22 08:55:30;;;;;;;5.35;3.25;;;;;;;;;;5111620;28;20051;-31
2023/02/22 08:57:56;;;;;;;5.47;3.25;;;;;;;;;;5111413;28;20016;-32
2023/02/22 09:00:28;;;;;;;4.95;3.15;;;;;;;;;;5109856;28;20039;-33
2023/02/22 09:02:54;;;;;;;5.82;3.00;;;;;;;;;;5111615;28;20023;-34
2023/02/22 09:05:20;;;;;;;5.32;2.90;;;;;;;;;;5111599;28;20027;-32
2023/02/22 09:07:47;;;;;;;5.43;3.00;;;;;;;;;;5111164;28;20028;-32
2023/02/22 09:10:17;;;;;;;4.90;2.97;;;;;;;;;;5111354;28;20077;-30
2023/02/22 09:12:43;;;;;;;3.78;2.50;;;;;;;;;;5111300;28;20037;-31
2023/02/22 09:15:09;;;;;;;3.90;2.67;;;;;;;;;;5111335;28;20011;-33
2023/02/22 09:17:36;;;;;;;4.32;2.80;;;;;;;;;;5111203;28;20077;-31
2023/02/22 09:20:02;;;;;;;4.55;2.83;;;;;;;;;;5111448;28;20026;-31
2023/02/22 09:22:28;;;;;;;4.13;2.70;;;;;;;;;;5111192;28;20031;-36
2023/02/22 09:24:54;;;;;;;7.63;3.10;;;;;;;;;;5111352;28;20038;-34
2023/02/22 09:27:20;;;;;;;4.93;2.58;;;;;;;;;;5111074;28;20039;-34
2023/02/22 09:29:50;;;;;;;3.97;2.55;;;;;;;;;;5111018;28;20046;-31
2023/02/22 09:32:18;;;;;;;4.10;2.70;;;;;;;;;;5111123;28;20481;-32
2023/02/22 09:34:45;;;;;;;3.88;2.70;;;;;;;;;;5111205;28;20027;-31
2023/02/22 09:37:12;;;;;;;3.95;2.72;;;;;;;;;;5110824;28;20028;-31
2023/02/22 09:39:38;;;;;;;5.13;2.78;;;;;;;;;;5111304;28;20106;-33
2023/02/22 09:42:10;;;;;;;4.75;2.47;;;;;;;;;;5114627;28;20024;-33
2023/02/22 09:44:47;;;;;;;4.35;2.70;;;;;;;;;;5114747;28;20445;-34
2023/02/22 09:47:31;;;;;;;4.57;2.58;;;;;;;;;;5114499;28;20085;-33
2023/02/22 09:50:14;;;;;;;4.45;2.92;;;;;;;;;;5114679;28;20027;-31
2023/02/22 09:52:47;;;;;;;4.57;2.42;;;;;;;;;;5114318;28;20028;-33
2023/02/22 09:55:24;;;;;;;5.07;2.65;;;;;;;;;;5114329;28;20058;-31
2023/02/22 09:57:54;;;;;;;4.45;2.40;;;;;;;;;;5114153;28;20011;-31
2023/02/22 10:00:21;;;;;;;4.20;2.45;;;;;;;;;;5114406;28;20051;-36
2023/02/22 10:03:00;;;;;;;4.47;2.63;;;;;;;;;;5114376;28;20062;-32
2023/02/22 10:05:32;;;;;;;3.67;2.40;;;;;;;;;;5114250;28;20027;-31
2023/02/22 10:08:24;;;;;;;3.70;2.42;;;;;;;;;;5114133;28;20031;-34
2023/02/22 10:10:54;;;;;;;4.97;2.60;;;;;;;;;;5112075;28;20035;-32
2023/02/22 10:13:40;;;;;;;4.70;2.90;;;;;;;;;;5114022;28;20027;-34
2023/02/22 10:16:25;;;;;;;7.07;3.50;;;;;;;;;;5113911;28;20028;-36
2023/02/22 10:18:55;;;;;;;8.10;3.28;;;;;;;;;;5113985;28;20071;-31
2023/02/22 10:21:29;;;;;;;6.50;3.42;;;;;;;;;;5113992;28;20358;-34
2023/02/22 10:23:58;;;;;;;6.72;3.40;;;;;;;;;;5112689;28;20477;-33
2023/02/22 10:26:32;;;;;;;7.88;2.83;;;;;;;;;;5113716;28;20031;-31
2023/02/22 10:28:58;;;;;;;;;;;;;;;;;;5114334;27;20032;-32
2023/02/22 10:31:27;;;;;;;4.50;2.58;;;;;;;;;;5113619;28;19903;-31
2023/02/22 10:34:04;;;;;;;5.85;2.60;;;;;;;;;;5113732;28;20034;-36
2023/02/22 10:36:32;;;;;;;4.88;2.50;;;;;;;;;;5113514;28;20077;-34
2023/02/22 10:38:59;;;;;;;7.20;2.75;;;;;;;;;;5113677;28;20030;-33
2023/02/22 10:41:34;;;;;;;3.72;2.30;;;;;;;;;;5113594;28;20382;-33
2023/02/22 10:44:01;;;;;;;7.40;2.58;;;;;;;;;;5113497;28;20031;-34
2023/02/22 10:46:28;;;;;;;4.75;2.38;;;;;;;;;;5113261;28;20452;-31
2023/02/22 10:48:56;;;;;;;4.03;2.08;;;;;;;;;;5113423;28;20032;-36
2023/02/22 10:51:22;;;;;;;3.85;2.40;;;;;;;;;;5112805;27;20164;-37
2023/02/22 10:53:55;;;;;;;3.55;2.20;;;;;;;;;;5113250;28;20111;-33
2023/02/22 10:56:23;;;;;;;4.60;1.97;;;;;;;;;;5113568;28;20055;-32
2023/02/22 10:58:49;;;;;;;5.10;2.38;;;;;;;;;;5113316;28;20058;-32
2023/02/22 11:01:40;;;;;;;3.28;2.00;;;;;;;;;;5113335;28;20031;-32
2023/02/22 11:04:11;;;;;;;3.85;1.73;;;;;;;;;;5108277;28;20031;-36
2023/02/22 11:06:37;;;;;;;3.83;2.08;;;;;;;;;;5111430;28;20389;-35
2023/02/22 11:09:05;;;;;;;4.10;1.80;;;;;;;;;;5112990;27;20031;-32
2023/02/22 11:11:32;;;;;;;5.82;2.00;;;;;;;;;;5112953;28;20030;-32
2023/02/22 11:13:59;;;;;;;7.60;2.10;;;;;;;;;;5112942;27;20026;-33
2023/02/22 11:16:28;;;;;;;3.42;1.90;;;;;;;;;;5112761;27;20041;-37
2023/02/22 11:19:01;;;;;;;3.92;1.90;;;;;;;;;;5112886;28;20489;-34
2023/02/22 11:21:29;;;;;;;4.63;1.60;;;;;;;;;;5112613;28;20435;-33
2023/02/22 11:24:03;;;;;;;3.53;1.63;;;;;;;;;;5112767;28;20027;-31
2023/02/22 11:26:36;;;;;;;5.00;1.67;;;;;;;;;;5112487;28;20027;-38
2023/02/22 11:29:09;;;;;;;4.35;1.88;;;;;;;;;;5111370;28;20120;-35
2023/02/22 11:31:41;;;;;;;3.00;1.65;;;;;;;;;;5112513;28;20031;-32
2023/02/22 11:34:07;;;;;;;2.83;1.80;;;;;;;;;;5112502;28;20046;-31
2023/02/22 11:36:39;;;;;;;3.13;1.70;;;;;;;;;;5112331;28;20053;-31
2023/02/22 11:39:10;;;;;;;4.13;1.90;;;;;;;;;;5112435;28;20477;-34
2023/02/22 11:41:36;;;;;;;2.58;1.85;;;;;;;;;;5112353;28;20024;-35
2023/02/22 11:44:13;;;;;;;3.65;1.80;;;;;;;;;;5112369;28;20020;-35
2023/02/22 11:46:40;;;;;;;2.47;1.58;;;;;;;;;;5112102;28;20051;-36
2023/02/22 11:49:10;;;;;;;2.88;1.70;;;;;;;;;;5110943;28;20023;-31
2023/02/22 11:51:54;;;;;;;3.53;1.70;;;;;;;;;;5112180;28;20116;-37
2023/02/22 11:54:34;;;;;;;2.08;1.67;;;;;;;;;;5112189;28;20393;-35
2023/02/22 11:57:14;;;;;;;2.65;1.67;;;;;;;;;;5111927;28;20445;-36
2023/02/22 11:59:51;;;;;;;2.50;1.67;;;;;;;;;;5112072;28;20032;-35
2023/02/22 12:02:19;;;;;;;3.22;1.52;;;;;;;;;;5111504;28;20052;-31
2023/02/22 12:04:45;;;;;;;2.95;1.55;;;;;;;;;;5111868;28;20098;-33
2023/02/22 12:07:32;;;;;;;3.30;1.58;;;;;;;;;;5111698;28;20103;-30
2023/02/22 12:09:58;;;;;;;3.10;1.70;;;;;;;;;;5112128;28;20019;-35
2023/02/22 12:12:44;;;;;;;2.75;1.50;;;;;;;;;;5111918;28;20405;-34
2023/02/22 12:15:14;;;;;;;2.53;1.33;;;;;;;;;;5111878;28;20103;-36
2023/02/22 12:17:40;;;;;;;4.00;1.80;;;;;;;;;;5111534;28;20024;-32
2023/02/22 12:20:21;;;;;;;3.55;1.73;;;;;;;;;;5111959;28;20041;-31
2023/02/22 12:22:52;;;;;;;2.60;1.52;;;;;;;;;;5111946;28;20028;-33
2023/02/22 12:25:24;;;;;;;2.38;1.58;;;;;;;;;;5111910;28;20485;-30
2023/02/22 12:27:58;;;;;;;2.35;1.48;;;;;;;;;;5110256;28;20042;-34
2023/02/22 12:30:27;;;;;;;1.73;1.30;;;;;;;;;;5110368;28;20027;-33
2023/02/22 12:32:55;;;;;;;2.30;1.40;;;;;;;;;;5111621;28;20023;-32
2023/02/22 12:35:23;;;;;;;4.00;1.65;;;;;;;;;;5111725;28;20030;-33
2023/02/22 12:37:55;;;;;;;2.22;1.45;;;;;;;;;;5111556;28;20069;-31
2023/02/22 12:40:40;;;;;;;3.90;1.75;;;;;;;;;;5111583;28;20051;-33
2023/02/22 12:43:06;;;;;;;3.65;1.65;;;;;;;;;;5111589;28;20397;-36
2023/02/22 12:45:38;;;;;;;5.72;1.65;;;;;;;;;;5111542;28;20019;-35
2023/02/22 12:48:25;;;;;;;2.72;1.67;;;;;;;;;;5111330;28;20020;-34
2023/02/22 12:50:55;;;;;;;2.13;1.40;;;;;;;;;;5089950;28;20039;-34
2023/02/22 12:53:31;;;;;;;2.20;1.35;;;;;;;;;;5110056;28;20559;-31
2023/02/22 12:56:03;;;;;;;1.52;1.38;;;;;;;;;;5111326;28;20028;-31
2023/02/22 12:58:35;;;;;;;2.00;1.40;;;;;;;;;;5111478;28;20023;-33
2023/02/22 13:01:16;;;;;;;2.63;1.52;;;;;;;;;;5111362;28;20494;-32
2023/02/22 13:03:43;;;;;;;1.80;1.40;;;;;;;;;;5111550;28;20087;-34
2023/02/22 13:06:21;;;;;;;2.75;1.73;;;;;;;;;;5111281;28;20080;-34
2023/02/22 13:08:50;;;;;;;6.18;1.50;;;;;;;;;;5111434;28;20098;-38
2023/02/22 13:11:31;;;;;;;2.28;1.20;;;;;;;;;;5111342;28;20024;-40
2023/02/22 13:14:03;;;;;;;2.47;1.50;;;;;;;;;;5111856;28;20038;-33
2023/02/22 13:16:29;;;;;;;4.05;1.67;;;;;;;;;;5115096;27;20020;-37
2023/02/22 13:18:55;;;;;;;2.85;1.52;;;;;;;;;;5115469;28;20051;-39
2023/02/22 13:21:27;;;;;;;2.53;1.40;;;;;;;;;;5115189;28;20016;-36
2023/02/22 13:24:04;;;;;;;2.97;1.73;;;;;;;;;;5115166;28;20039;-40
2023/02/22 13:26:39;;;;;;;2.53;1.55;;;;;;;;;;5114908;28;20030;-37
2023/02/22 13:29:14;;;;;;;4.55;1.55;;;;;;;;;;5115055;28;20024;-41
2023/02/22 13:31:46;;;;;;;2.22;1.40;;;;;;;;;;5114903;28;20028;-39
2023/02/22 13:34:41;;;;;;;1.85;1.35;;;;;;;;;;5114983;28;20027;-39
2023/02/22 13:37:10;;;;;;;3.33;1.75;;;;;;;;;;5105368;28;20067;-36
2023/02/22 13:39:55;;;;;;;1.85;1.27;;;;;;;;;;5114811;28;20084;-38
2023/02/22 13:42:29;;;;;;;1.92;1.35;;;;;;;;;;5114714;28;20027;-41
2023/02/22 13:45:02;;;;;;;1.95;1.30;;;;;;;;;;5114628;28;20474;-36
2023/02/22 13:47:28;;;;;;;2.00;1.40;;;;;;;;;;5114399;28;20024;-36
2023/02/22 13:50:13;;;;;;;2.03;1.50;;;;;;;;;;5114657;28;20023;-40
2023/02/22 13:52:40;;;;;;;3.65;1.90;;;;;;;;;;5114576;28;20828;-38
2023/02/22 13:55:11;;;;;;;2.75;1.40;;;;;;;;;;5114136;28;20031;-39
2023/02/22 13:57:47;;;;;;;2.72;1.30;;;;;;;;;;5114245;28;20045;-36
2023/02/22 14:00:21;;;;;;;2.50;1.58;;;;;;;;;;5114506;28;20444;-40
2023/02/22 14:03:10;;;;;;;1.77;1.23;;;;;;;;;;5114527;28;20023;-40
2023/02/22 14:05:48;;;;;;;4.60;1.63;;;;;;;;;;5104851;28;20405;-39
2023/02/22 14:11:18;;;;;;;2.35;1.52;;;;;;;;;;5112764;28;20331;-40
2023/02/22 14:13:54;;;;;;;2.85;1.60;;;;;;;;;;5114430;28;20027;-36
2023/02/22 14:16:20;;;;;;;2.40;1.13;;;;;;;;;;5114019;28;20028;-40
2023/02/22 14:18:48;;;;;;;3.65;1.92;;;;;;;;;;5114034;28;20512;-35
2023/02/22 14:21:21;;;;;;;2.47;1.52;;;;;;;;;;5114020;28;20030;-37
2023/02/22 14:23:51;;;;;;;1.98;1.48;;;;;;;;;;5114076;28;20028;-39
2023/02/22 14:26:27;;;;;;;2.42;1.40;;;;;;;;;;5113072;28;20031;-40
2023/02/22 14:29:08;;;;;;;4.05;1.63;;;;;;;;;;5113849;28;20027;-41
2023/02/22 14:31:55;;;;;;;2.83;1.70;;;;;;;;;;5113750;28;20032;-36
2023/02/22 14:34:22;;;;;;;2.60;1.65;;;;;;;;;;5106250;27;20539;-39
2023/02/22 14:36:53;;;;;;;6.55;3.92;;;;;;;;;;5113513;28;20031;-39
2023/02/22 14:39:30;;;;;;;8.18;5.15;;;;;;;;;;5113690;28;20027;-39
2023/02/22 14:42:02;;;;;;;10.57;5.80;;;;;;;;;;5113518;28;20098;-36
2023/02/22 14:44:33;;;;;;;9.35;5.47;;;;;;;;;;5113521;28;20452;-41
2023/02/22 14:47:03;;;;;;;7.85;5.18;;;;;;;;;;5111925;28;20111;-36
2023/02/22 14:49:31;;;;;;;12.10;4.85;;;;;;;;;;5113524;28;20023;-41
2023/02/22 14:52:02;;;;;;;8.57;4.72;;;;;;;;;;5113233;28;20035;-34
2023/02/22 14:54:31;;;;;;;11.65;4.68;;;;;;;;;;5113117;28;20023;-41
2023/02/22 14:57:10;;;;;;;6.70;4.75;;;;;;;;;;5113189;28;20562;-38
2023/02/22 14:59:45;;;;;;;7.60;4.18;;;;;;;;;;5113185;28;20452;-40